sensor_id;sensor_type;location;lat;lon;timestamp;pressure;altitude;pressure_sealevel;temperature;humidity
57847;BME280;43675;50.030;21.952;2023-04-30T00:00:43;98478.84;;;11.45;56.87
57847;BME280;43675;50.030;21.952;2023-04-30T00:03:29;98481.36;;;11.42;56.92
57847;BME280;43675;50.030;21.952;2023-04-30T00:05:55;98484.37;;;11.39;57.09
57847;BME280;43675;50.030;21.952;2023-04-30T00:08:22;98476.37;;;11.34;57.34
57847;BME280;43675;50.030;21.952;2023-04-30T00:10:48;98472.65;;;11.30;57.58
57847;BME280;43675;50.030;21.952;2023-04-30T00:13:15;98473.69;;;11.27;57.67
57847;BME280;43675;50.030;21.952;2023-04-30T00:15:41;98471.98;;;11.24;57.82
57847;BME280;43675;50.030;21.952;2023-04-30T00:18:08;98469.89;;;11.22;57.78
57847;BME280;43675;50.030;21.952;2023-04-30T00:20:34;98469.15;;;11.21;58.01
57847;BME280;43675;50.030;21.952;2023-04-30T00:23:01;98469.17;;;11.20;58.14
57847;BME280;43675;50.030;21.952;2023-04-30T00:25:27;98467.64;;;11.19;58.34
57847;BME280;43675;50.030;21.952;2023-04-30T00:27:54;98464.95;;;11.19;58.53
57847;BME280;43675;50.030;21.952;2023-04-30T00:30:20;98465.17;;;11.19;58.62
57847;BME280;43675;50.030;21.952;2023-04-30T00:32:47;98462.79;;;11.18;58.71
57847;BME280;43675;50.030;21.952;2023-04-30T00:35:13;98459.89;;;11.18;58.65
57847;BME280;43675;50.030;21.952;2023-04-30T00:37:40;98461.21;;;11.18;58.80
57847;BME280;43675;50.030;21.952;2023-04-30T00:40:07;98460.77;;;11.17;59.07
57847;BME280;43675;50.030;21.952;2023-04-30T00:42:33;98463.83;;;11.17;59.08
57847;BME280;43675;50.030;21.952;2023-04-30T00:45:00;98459.39;;;11.18;59.05
57847;BME280;43675;50.030;21.952;2023-04-30T00:47:27;98461.01;;;11.18;59.11
57847;BME280;43675;50.030;21.952;2023-04-30T00:49:53;98461.27;;;11.17;59.12
57847;BME280;43675;50.030;21.952;2023-04-30T00:52:20;98460.27;;;11.17;59.26
57847;BME280;43675;50.030;21.952;2023-04-30T00:54:46;98463.70;;;11.17;59.31
57847;BME280;43675;50.030;21.952;2023-04-30T00:57:14;98465.58;;;11.16;59.40
57847;BME280;43675;50.030;21.952;2023-04-30T00:59:41;98466.53;;;11.16;59.61
57847;BME280;43675;50.030;21.952;2023-04-30T01:02:08;98470.02;;;11.14;59.68
57847;BME280;43675;50.030;21.952;2023-04-30T01:04:35;98470.83;;;11.12;59.74
57847;BME280;43675;50.030;21.952;2023-04-30T01:07:01;98472.37;;;11.10;59.96
57847;BME280;43675;50.030;21.952;2023-04-30T01:09:28;98472.27;;;11.07;59.98
57847;BME280;43675;50.030;21.952;2023-04-30T01:17:20;98469.95;;;10.89;60.54
57847;BME280;43675;50.030;21.952;2023-04-30T01:19:49;98473.44;;;10.82;60.69
57847;BME280;43675;50.030;21.952;2023-04-30T01:30:24;98472.86;;;10.74;61.72
57847;BME280;43675;50.030;21.952;2023-04-30T01:32:51;98480.80;;;10.75;61.82
57847;BME280;43675;50.030;21.952;2023-04-30T01:35:17;98479.63;;;10.77;62.09
57847;BME280;43675;50.030;21.952;2023-04-30T01:40:42;98481.19;;;10.79;62.53
57847;BME280;43675;50.030;21.952;2023-04-30T01:43:23;98479.53;;;10.79;62.62
57847;BME280;43675;50.030;21.952;2023-04-30T01:46:18;98482.20;;;10.82;62.81
57847;BME280;43675;50.030;21.952;2023-04-30T01:59:26;98482.64;;;10.86;63.52
57847;BME280;43675;50.030;21.952;2023-04-30T02:01:54;98482.65;;;10.86;63.76
57847;BME280;43675;50.030;21.952;2023-04-30T02:04:21;98484.64;;;10.85;63.97
57847;BME280;43675;50.030;21.952;2023-04-30T02:06:48;98482.83;;;10.98;63.95
57847;BME280;43675;50.030;21.952;2023-04-30T02:09:14;98483.63;;;11.05;64.01
57847;BME280;43675;50.030;21.952;2023-04-30T02:11:41;98483.58;;;10.96;64.29
57847;BME280;43675;50.030;21.952;2023-04-30T02:14:07;98482.96;;;10.88;64.62
57847;BME280;43675;50.030;21.952;2023-04-30T02:16:34;98483.69;;;10.82;64.85
57847;BME280;43675;50.030;21.952;2023-04-30T02:19:01;98482.81;;;10.78;65.18
57847;BME280;43675;50.030;21.952;2023-04-30T02:21:27;98484.13;;;10.77;65.50
57847;BME280;43675;50.030;21.952;2023-04-30T02:23:54;98480.54;;;10.91;65.31
57847;BME280;43675;50.030;21.952;2023-04-30T02:26:20;98482.83;;;10.94;65.32
57847;BME280;43675;50.030;21.952;2023-04-30T02:28:47;98485.36;;;10.87;65.39
57847;BME280;43675;50.030;21.952;2023-04-30T02:31:13;98488.30;;;10.82;65.70
57847;BME280;43675;50.030;21.952;2023-04-30T02:33:40;98487.23;;;10.78;65.90
57847;BME280;43675;50.030;21.952;2023-04-30T02:36:06;98491.18;;;10.74;66.02
57847;BME280;43675;50.030;21.952;2023-04-30T02:38:33;98495.95;;;10.71;66.35
57847;BME280;43675;50.030;21.952;2023-04-30T02:40:59;98498.35;;;10.67;66.54
57847;BME280;43675;50.030;21.952;2023-04-30T02:43:26;98495.79;;;10.62;66.64
57847;BME280;43675;50.030;21.952;2023-04-30T02:45:53;98496.46;;;10.59;66.85
57847;BME280;43675;50.030;21.952;2023-04-30T02:48:19;98494.06;;;10.56;67.21
57847;BME280;43675;50.030;21.952;2023-04-30T02:50:46;98498.74;;;10.53;67.69
57847;BME280;43675;50.030;21.952;2023-04-30T02:53:12;98501.45;;;10.52;67.99
57847;BME280;43675;50.030;21.952;2023-04-30T02:55:39;98498.92;;;10.52;68.19
57847;BME280;43675;50.030;21.952;2023-04-30T02:58:05;98497.91;;;10.53;68.53
57847;BME280;43675;50.030;21.952;2023-04-30T03:00:32;98498.20;;;10.53;68.68
57847;BME280;43675;50.030;21.952;2023-04-30T03:02:58;98502.84;;;10.52;68.98
57847;BME280;43675;50.030;21.952;2023-04-30T03:05:25;98504.60;;;10.50;69.18
57847;BME280;43675;50.030;21.952;2023-04-30T03:07:51;98505.46;;;10.49;69.38
57847;BME280;43675;50.030;21.952;2023-04-30T03:10:18;98508.66;;;10.48;69.55
57847;BME280;43675;50.030;21.952;2023-04-30T03:12:44;98509.73;;;10.48;69.68
57847;BME280;43675;50.030;21.952;2023-04-30T03:15:11;98513.55;;;10.50;69.88
57847;BME280;43675;50.030;21.952;2023-04-30T03:17:37;98512.80;;;10.51;69.89
57847;BME280;43675;50.030;21.952;2023-04-30T03:20:04;98513.77;;;10.54;70.14
57847;BME280;43675;50.030;21.952;2023-04-30T03:22:31;98514.98;;;10.57;70.16
57847;BME280;43675;50.030;21.952;2023-04-30T03:24:57;98513.89;;;10.60;70.36
57847;BME280;43675;50.030;21.952;2023-04-30T03:27:24;98515.81;;;10.63;70.49
57847;BME280;43675;50.030;21.952;2023-04-30T03:29:50;98516.42;;;10.67;70.48
57847;BME280;43675;50.030;21.952;2023-04-30T03:32:17;98518.82;;;10.73;70.58
57847;BME280;43675;50.030;21.952;2023-04-30T03:34:43;98516.38;;;10.78;70.52
57847;BME280;43675;50.030;21.952;2023-04-30T03:37:10;98523.18;;;10.84;70.65
57847;BME280;43675;50.030;21.952;2023-04-30T03:39:36;98526.14;;;10.91;70.77
57847;BME280;43675;50.030;21.952;2023-04-30T03:42:03;98529.23;;;10.97;70.80
57847;BME280;43675;50.030;21.952;2023-04-30T03:44:29;98530.73;;;11.03;70.93
57847;BME280;43675;50.030;21.952;2023-04-30T03:46:56;98531.56;;;11.08;71.01
57847;BME280;43675;50.030;21.952;2023-04-30T03:49:22;98534.63;;;11.13;70.99
57847;BME280;43675;50.030;21.952;2023-04-30T03:51:49;98534.45;;;11.16;71.10
57847;BME280;43675;50.030;21.952;2023-04-30T03:54:15;98538.65;;;11.20;71.26
57847;BME280;43675;50.030;21.952;2023-04-30T03:56:42;98535.10;;;11.23;71.13
57847;BME280;43675;50.030;21.952;2023-04-30T03:59:08;98538.16;;;11.27;71.22
57847;BME280;43675;50.030;21.952;2023-04-30T04:01:35;98538.90;;;11.30;71.15
57847;BME280;43675;50.030;21.952;2023-04-30T04:04:01;98541.66;;;11.34;71.12
57847;BME280;43675;50.030;21.952;2023-04-30T04:06:28;98543.27;;;11.39;71.19
57847;BME280;43675;50.030;21.952;2023-04-30T04:08:54;98545.42;;;11.43;71.27
57847;BME280;43675;50.030;21.952;2023-04-30T04:11:21;98543.41;;;11.47;71.33
57847;BME280;43675;50.030;21.952;2023-04-30T04:13:48;98541.73;;;11.53;71.41
57847;BME280;43675;50.030;21.952;2023-04-30T04:16:14;98545.64;;;11.58;71.25
57847;BME280;43675;50.030;21.952;2023-04-30T04:18:41;98546.08;;;11.63;71.26
57847;BME280;43675;50.030;21.952;2023-04-30T04:21:07;98543.19;;;11.69;71.37
57847;BME280;43675;50.030;21.952;2023-04-30T04:23:34;98545.83;;;11.76;71.15
57847;BME280;43675;50.030;21.952;2023-04-30T04:26:00;98549.39;;;11.82;71.25
57847;BME280;43675;50.030;21.952;2023-04-30T04:28:27;98544.02;;;11.87;71.30
57847;BME280;43675;50.030;21.952;2023-04-30T04:30:53;98545.19;;;11.91;71.24
57847;BME280;43675;50.030;21.952;2023-04-30T04:33:20;98543.73;;;11.96;71.29
57847;BME280;43675;50.030;21.952;2023-04-30T04:35:46;98544.64;;;12.02;71.23
57847;BME280;43675;50.030;21.952;2023-04-30T04:38:13;98546.61;;;12.09;71.09
57847;BME280;43675;50.030;21.952;2023-04-30T04:40:39;98545.14;;;12.16;70.88
57847;BME280;43675;50.030;21.952;2023-04-30T04:43:06;98543.42;;;12.24;71.01
57847;BME280;43675;50.030;21.952;2023-04-30T04:45:32;98547.42;;;12.35;70.95
57847;BME280;43675;50.030;21.952;2023-04-30T04:47:59;98549.25;;;12.45;70.92
57847;BME280;43675;50.030;21.952;2023-04-30T04:50:25;98549.92;;;12.56;70.76
57847;BME280;43675;50.030;21.952;2023-04-30T04:52:52;98553.25;;;12.68;70.65
57847;BME280;43675;50.030;21.952;2023-04-30T04:55:18;98555.60;;;12.72;70.48
57847;BME280;43675;50.030;21.952;2023-04-30T04:57:45;98558.21;;;12.69;70.53
57847;BME280;43675;50.030;21.952;2023-04-30T05:00:11;98558.55;;;12.69;70.58
57847;BME280;43675;50.030;21.952;2023-04-30T05:02:38;98560.03;;;12.74;70.61
57847;BME280;43675;50.030;21.952;2023-04-30T05:05:05;98565.84;;;12.79;70.44
57847;BME280;43675;50.030;21.952;2023-04-30T05:07:31;98568.44;;;12.79;70.42
57847;BME280;43675;50.030;21.952;2023-04-30T05:09:58;98573.02;;;12.79;70.45
57847;BME280;43675;50.030;21.952;2023-04-30T05:12:24;98571.83;;;12.75;70.47
57847;BME280;43675;50.030;21.952;2023-04-30T05:14:51;98573.31;;;12.73;70.65
57847;BME280;43675;50.030;21.952;2023-04-30T05:17:17;98571.84;;;12.79;70.83
57847;BME280;43675;50.030;21.952;2023-04-30T05:19:44;98573.30;;;12.95;70.87
57847;BME280;43675;50.030;21.952;2023-04-30T05:22:10;98575.20;;;13.18;70.62
57847;BME280;43675;50.030;21.952;2023-04-30T05:24:37;98573.36;;;13.46;70.14
57847;BME280;43675;50.030;21.952;2023-04-30T05:27:03;98576.71;;;13.71;69.51
57847;BME280;43675;50.030;21.952;2023-04-30T05:29:30;98576.48;;;13.82;69.05
57847;BME280;43675;50.030;21.952;2023-04-30T05:31:56;98577.69;;;13.91;68.70
57847;BME280;43675;50.030;21.952;2023-04-30T05:34:23;98582.38;;;13.99;68.40
57847;BME280;43675;50.030;21.952;2023-04-30T05:36:49;98583.24;;;13.99;68.21
57847;BME280;43675;50.030;21.952;2023-04-30T05:39:16;98583.32;;;14.01;68.02
57847;BME280;43675;50.030;21.952;2023-04-30T05:41:42;98588.38;;;14.02;67.89
57847;BME280;43675;50.030;21.952;2023-04-30T05:44:09;98589.14;;;14.05;67.85
57847;BME280;43675;50.030;21.952;2023-04-30T05:46:35;98588.48;;;14.07;67.64
57847;BME280;43675;50.030;21.952;2023-04-30T05:49:02;98590.40;;;14.03;67.45
57847;BME280;43675;50.030;21.952;2023-04-30T05:51:28;98592.33;;;14.00;67.48
57847;BME280;43675;50.030;21.952;2023-04-30T05:53:55;98591.63;;;13.99;67.43
57847;BME280;43675;50.030;21.952;2023-04-30T05:56:21;98596.30;;;14.04;67.43
57847;BME280;43675;50.030;21.952;2023-04-30T05:58:48;98595.64;;;14.06;67.32
57847;BME280;43675;50.030;21.952;2023-04-30T06:01:14;98594.33;;;14.13;67.36
57847;BME280;43675;50.030;21.952;2023-04-30T06:03:41;98594.14;;;14.30;67.11
57847;BME280;43675;50.030;21.952;2023-04-30T06:06:07;98592.88;;;14.50;66.77
57847;BME280;43675;50.030;21.952;2023-04-30T06:08:34;98593.27;;;14.66;66.28
57847;BME280;43675;50.030;21.952;2023-04-30T06:11:01;98597.10;;;14.74;65.79
57847;BME280;43675;50.030;21.952;2023-04-30T06:13:27;98598.91;;;14.78;65.65
57847;BME280;43675;50.030;21.952;2023-04-30T06:15:54;98596.38;;;14.82;65.57
57847;BME280;43675;50.030;21.952;2023-04-30T06:18:20;98595.81;;;14.90;65.37
57847;BME280;43675;50.030;21.952;2023-04-30T06:20:47;98598.04;;;14.94;65.21
57847;BME280;43675;50.030;21.952;2023-04-30T06:23:13;98599.50;;;14.94;64.92
57847;BME280;43675;50.030;21.952;2023-04-30T06:25:40;98601.41;;;14.92;64.84
57847;BME280;43675;50.030;21.952;2023-04-30T06:28:06;98602.14;;;14.93;64.80
57847;BME280;43675;50.030;21.952;2023-04-30T06:30:33;98601.16;;;14.92;64.76
57847;BME280;43675;50.030;21.952;2023-04-30T06:32:59;98602.83;;;14.95;64.70
57847;BME280;43675;50.030;21.952;2023-04-30T06:35:26;98606.66;;;14.98;64.51
57847;BME280;43675;50.030;21.952;2023-04-30T06:37:52;98605.05;;;14.96;64.46
57847;BME280;43675;50.030;21.952;2023-04-30T06:40:19;98609.92;;;15.03;64.53
57847;BME280;43675;50.030;21.952;2023-04-30T06:42:46;98610.63;;;15.15;64.37
57847;BME280;43675;50.030;21.952;2023-04-30T06:45:12;98611.19;;;15.34;64.20
57847;BME280;43675;50.030;21.952;2023-04-30T06:47:39;98617.32;;;15.54;63.74
57847;BME280;43675;50.030;21.952;2023-04-30T06:50:07;98621.98;;;15.70;63.32
57847;BME280;43675;50.030;21.952;2023-04-30T06:52:33;98618.67;;;15.83;63.00
57847;BME280;43675;50.030;21.952;2023-04-30T06:55:01;98622.41;;;16.16;62.81
57847;BME280;43675;50.030;21.952;2023-04-30T06:57:27;98625.88;;;16.48;62.04
57847;BME280;43675;50.030;21.952;2023-04-30T06:59:54;98623.33;;;16.64;61.38
57847;BME280;43675;50.030;21.952;2023-04-30T07:02:20;98624.91;;;16.76;61.05
57847;BME280;43675;50.030;21.952;2023-04-30T07:04:47;98623.05;;;16.84;60.77
57847;BME280;43675;50.030;21.952;2023-04-30T07:07:14;98623.29;;;16.86;60.53
57847;BME280;43675;50.030;21.952;2023-04-30T07:09:40;98625.56;;;16.75;60.38
57847;BME280;43675;50.030;21.952;2023-04-30T07:12:07;98624.92;;;16.71;60.50
57847;BME280;43675;50.030;21.952;2023-04-30T07:14:33;98629.64;;;16.66;60.42
57847;BME280;43675;50.030;21.952;2023-04-30T07:17:00;98630.52;;;16.61;60.35
57847;BME280;43675;50.030;21.952;2023-04-30T07:19:26;98627.78;;;16.59;60.24
57847;BME280;43675;50.030;21.952;2023-04-30T07:21:53;98627.48;;;16.63;60.18
57847;BME280;43675;50.030;21.952;2023-04-30T07:24:19;98624.58;;;16.69;59.87
57847;BME280;43675;50.030;21.952;2023-04-30T07:26:46;98627.64;;;16.72;59.76
57847;BME280;43675;50.030;21.952;2023-04-30T07:29:12;98630.44;;;16.70;59.67
57847;BME280;43675;50.030;21.952;2023-04-30T07:31:39;98634.64;;;16.68;59.60
57847;BME280;43675;50.030;21.952;2023-04-30T07:34:05;98633.65;;;16.77;59.64
57847;BME280;43675;50.030;21.952;2023-04-30T07:36:32;98639.10;;;16.84;59.12
57847;BME280;43675;50.030;21.952;2023-04-30T07:38:58;98639.91;;;16.74;58.96
57847;BME280;43675;50.030;21.952;2023-04-30T07:41:25;98640.55;;;16.68;59.18
57847;BME280;43675;50.030;21.952;2023-04-30T07:43:51;98638.97;;;16.72;59.17
57847;BME280;43675;50.030;21.952;2023-04-30T07:46:18;98634.81;;;16.88;59.12
57847;BME280;43675;50.030;21.952;2023-04-30T07:48:44;98630.34;;;17.03;58.45
57847;BME280;43675;50.030;21.952;2023-04-30T07:51:11;98636.74;;;17.09;58.26
57847;BME280;43675;50.030;21.952;2023-04-30T07:53:37;98641.02;;;17.08;58.20
57847;BME280;43675;50.030;21.952;2023-04-30T07:56:04;98637.86;;;17.13;58.15
57847;BME280;43675;50.030;21.952;2023-04-30T07:58:31;98641.84;;;17.26;58.04
57847;BME280;43675;50.030;21.952;2023-04-30T08:00:57;98645.55;;;17.29;57.62
57847;BME280;43675;50.030;21.952;2023-04-30T08:03:24;98645.45;;;17.31;57.25
57847;BME280;43675;50.030;21.952;2023-04-30T08:05:51;98645.66;;;17.30;57.19
57847;BME280;43675;50.030;21.952;2023-04-30T08:08:18;98646.70;;;17.20;56.95
57847;BME280;43675;50.030;21.952;2023-04-30T08:10:44;98642.04;;;17.08;56.96
57847;BME280;43675;50.030;21.952;2023-04-30T08:13:11;98643.98;;;17.07;57.21
57847;BME280;43675;50.030;21.952;2023-04-30T08:15:37;98647.00;;;16.99;57.35
57847;BME280;43675;50.030;21.952;2023-04-30T08:18:04;98645.84;;;17.01;57.74
57847;BME280;43675;50.030;21.952;2023-04-30T08:20:31;98646.94;;;17.21;57.37
57847;BME280;43675;50.030;21.952;2023-04-30T08:22:58;98646.09;;;17.18;57.11
57847;BME280;43675;50.030;21.952;2023-04-30T08:25:24;98645.42;;;17.09;57.41
57847;BME280;43675;50.030;21.952;2023-04-30T08:27:51;98645.73;;;17.14;57.13
57847;BME280;43675;50.030;21.952;2023-04-30T08:30:17;98651.27;;;17.19;56.96
57847;BME280;43675;50.030;21.952;2023-04-30T08:32:44;98651.84;;;17.41;56.72
57847;BME280;43675;50.030;21.952;2023-04-30T08:35:10;98652.86;;;17.83;56.46
57847;BME280;43675;50.030;21.952;2023-04-30T08:37:37;98649.11;;;18.27;55.55
57847;BME280;43675;50.030;21.952;2023-04-30T08:40:04;98648.48;;;18.50;54.82
57847;BME280;43675;50.030;21.952;2023-04-30T08:42:35;98654.64;;;18.39;54.27
57847;BME280;43675;50.030;21.952;2023-04-30T08:45:03;98661.80;;;18.04;54.29
57847;BME280;43675;50.030;21.952;2023-04-30T08:47:30;98662.92;;;17.56;54.62
57847;BME280;43675;50.030;21.952;2023-04-30T08:49:57;98662.77;;;17.13;55.41
57847;BME280;43675;50.030;21.952;2023-04-30T08:52:23;98674.07;;;16.79;56.23
57847;BME280;43675;50.030;21.952;2023-04-30T08:54:53;98677.52;;;16.48;57.01
57847;BME280;43675;50.030;21.952;2023-04-30T08:57:22;98673.99;;;16.19;57.75
57847;BME280;43675;50.030;21.952;2023-04-30T08:59:49;98680.86;;;16.02;58.32
57847;BME280;43675;50.030;21.952;2023-04-30T09:02:16;98679.59;;;15.89;58.81
57847;BME280;43675;50.030;21.952;2023-04-30T09:04:42;98677.38;;;15.86;59.26
57847;BME280;43675;50.030;21.952;2023-04-30T09:07:10;98675.85;;;15.89;59.25
57847;BME280;43675;50.030;21.952;2023-04-30T09:09:38;98677.42;;;15.89;59.32
57847;BME280;43675;50.030;21.952;2023-04-30T09:12:18;98676.85;;;15.98;59.47
57847;BME280;43675;50.030;21.952;2023-04-30T09:17:25;98690.94;;;16.38;59.02
57847;BME280;43675;50.030;21.952;2023-04-30T09:19:52;98694.59;;;16.52;58.66
57847;BME280;43675;50.030;21.952;2023-04-30T09:22:19;98693.45;;;16.60;58.32
57847;BME280;43675;50.030;21.952;2023-04-30T09:24:47;98688.64;;;16.70;58.17
57847;BME280;43675;50.030;21.952;2023-04-30T09:27:19;98696.98;;;16.87;57.92
57847;BME280;43675;50.030;21.952;2023-04-30T09:29:46;98698.29;;;16.97;57.53
57847;BME280;43675;50.030;21.952;2023-04-30T09:32:13;98695.71;;;17.01;57.28
57847;BME280;43675;50.030;21.952;2023-04-30T09:34:40;98700.12;;;16.92;57.18
57847;BME280;43675;50.030;21.952;2023-04-30T09:37:06;98700.55;;;16.65;57.26
57847;BME280;43675;50.030;21.952;2023-04-30T09:39:33;98705.61;;;16.30;57.53
57847;BME280;43675;50.030;21.952;2023-04-30T09:42:11;98702.70;;;15.92;58.18
57847;BME280;43675;50.030;21.952;2023-04-30T09:44:39;98703.81;;;15.63;58.81
57847;BME280;43675;50.030;21.952;2023-04-30T09:47:17;98702.77;;;15.39;59.59
57847;BME280;43675;50.030;21.952;2023-04-30T09:49:48;98710.93;;;15.32;60.05
57847;BME280;43675;50.030;21.952;2023-04-30T09:52:15;98711.63;;;15.41;60.55
57847;BME280;43675;50.030;21.952;2023-04-30T09:54:43;98722.81;;;15.40;60.78
57847;BME280;43675;50.030;21.952;2023-04-30T09:57:12;98726.00;;;15.22;61.23
57847;BME280;43675;50.030;21.952;2023-04-30T09:59:43;98726.36;;;15.09;61.60
57847;BME280;43675;50.030;21.952;2023-04-30T10:02:12;98727.63;;;15.07;62.00
57847;BME280;43675;50.030;21.952;2023-04-30T10:04:44;98730.34;;;15.05;62.07
57847;BME280;43675;50.030;21.952;2023-04-30T10:07:20;98734.45;;;14.97;62.08
57847;BME280;43675;50.030;21.952;2023-04-30T10:09:57;98741.98;;;14.65;62.42
57847;BME280;43675;50.030;21.952;2023-04-30T10:12:47;98749.80;;;14.30;63.15
57847;BME280;43675;50.030;21.952;2023-04-30T10:15:27;98754.81;;;13.92;63.78
57847;BME280;43675;50.030;21.952;2023-04-30T10:18:05;98750.48;;;13.68;64.44
57847;BME280;43675;50.030;21.952;2023-04-30T10:20:34;98752.68;;;13.58;64.90
57847;BME280;43675;50.030;21.952;2023-04-30T10:23:01;98765.59;;;13.47;65.03
57847;BME280;43675;50.030;21.952;2023-04-30T10:25:28;98761.90;;;13.35;65.18
57847;BME280;43675;50.030;21.952;2023-04-30T10:27:55;98765.06;;;13.26;65.17
57847;BME280;43675;50.030;21.952;2023-04-30T10:30:22;98759.05;;;13.32;65.26
57847;BME280;43675;50.030;21.952;2023-04-30T10:33:03;98760.25;;;13.49;65.08
57847;BME280;43675;50.030;21.952;2023-04-30T10:36:00;98757.16;;;13.76;64.70
57847;BME280;43675;50.030;21.952;2023-04-30T10:38:27;98762.32;;;13.94;64.01
57847;BME280;43675;50.030;21.952;2023-04-30T10:40:55;98770.13;;;13.97;63.58
57847;BME280;43675;50.030;21.952;2023-04-30T10:43:23;98768.41;;;13.90;63.43
57847;BME280;43675;50.030;21.952;2023-04-30T10:45:50;98769.46;;;13.82;63.57
57847;BME280;43675;50.030;21.952;2023-04-30T10:48:21;98773.81;;;13.77;63.70
57847;BME280;43675;50.030;21.952;2023-04-30T10:50:49;98772.27;;;13.65;63.70
57847;BME280;43675;50.030;21.952;2023-04-30T10:53:18;98782.38;;;13.52;63.94
57847;BME280;43675;50.030;21.952;2023-04-30T10:56:07;98782.81;;;13.35;64.03
57847;BME280;43675;50.030;21.952;2023-04-30T10:58:34;98783.33;;;13.18;64.36
57847;BME280;43675;50.030;21.952;2023-04-30T11:01:14;98789.73;;;13.14;64.63
57847;BME280;43675;50.030;21.952;2023-04-30T11:09:33;98811.98;;;13.01;64.45
57847;BME280;43675;50.030;21.952;2023-04-30T11:12:02;98811.55;;;12.79;64.50
57847;BME280;43675;50.030;21.952;2023-04-30T11:14:31;98809.50;;;12.61;64.87
57847;BME280;43675;50.030;21.952;2023-04-30T11:16:59;98818.41;;;12.54;65.14
57847;BME280;43675;50.030;21.952;2023-04-30T11:19:26;98817.86;;;12.50;65.19
57847;BME280;43675;50.030;21.952;2023-04-30T11:24:51;98822.46;;;12.38;64.88
57847;BME280;43675;50.030;21.952;2023-04-30T11:27:29;98826.05;;;12.26;64.87
57847;BME280;43675;50.030;21.952;2023-04-30T11:29:57;98832.80;;;12.23;64.68
57847;BME280;43675;50.030;21.952;2023-04-30T11:32:32;98831.66;;;12.19;64.15
57847;BME280;43675;50.030;21.952;2023-04-30T11:35:00;98836.95;;;12.16;63.83
57847;BME280;43675;50.030;21.952;2023-04-30T11:40:06;98838.63;;;12.18;63.08
57847;BME280;43675;50.030;21.952;2023-04-30T11:42:34;98842.52;;;12.27;63.01
57847;BME280;43675;50.030;21.952;2023-04-30T11:45:05;98845.77;;;12.39;62.47
57847;BME280;43675;50.030;21.952;2023-04-30T11:47:53;98852.39;;;12.40;62.10
57847;BME280;43675;50.030;21.952;2023-04-30T11:50:22;98851.43;;;12.44;61.78
57847;BME280;43675;50.030;21.952;2023-04-30T11:52:50;98850.42;;;12.53;61.30
57847;BME280;43675;50.030;21.952;2023-04-30T11:55:19;98851.11;;;12.67;60.87
57847;BME280;43675;50.030;21.952;2023-04-30T11:57:48;98847.66;;;12.82;60.23
57847;BME280;43675;50.030;21.952;2023-04-30T12:00:17;98848.30;;;12.92;59.85
57847;BME280;43675;50.030;21.952;2023-04-30T12:02:46;98843.35;;;13.08;59.81
57847;BME280;43675;50.030;21.952;2023-04-30T12:05:18;98844.05;;;13.39;59.18
57847;BME280;43675;50.030;21.952;2023-04-30T12:10:17;98841.13;;;13.71;58.55
57847;BME280;43675;50.030;21.952;2023-04-30T12:12:46;98842.28;;;13.80;58.48
57847;BME280;43675;50.030;21.952;2023-04-30T12:15:14;98839.34;;;13.83;58.40
57847;BME280;43675;50.030;21.952;2023-04-30T12:17:42;98841.16;;;13.80;58.44
57847;BME280;43675;50.030;21.952;2023-04-30T12:20:10;98843.70;;;13.77;58.51
57847;BME280;43675;50.030;21.952;2023-04-30T12:22:37;98852.07;;;13.70;58.54
57847;BME280;43675;50.030;21.952;2023-04-30T12:25:12;98850.80;;;13.57;58.88
57847;BME280;43675;50.030;21.952;2023-04-30T12:27:40;98846.98;;;13.48;59.11
57847;BME280;43675;50.030;21.952;2023-04-30T12:30:08;98845.05;;;13.48;59.32
57847;BME280;43675;50.030;21.952;2023-04-30T12:32:41;98844.74;;;13.54;59.50
57847;BME280;43675;50.030;21.952;2023-04-30T12:35:18;98842.71;;;13.71;59.23
57847;BME280;43675;50.030;21.952;2023-04-30T12:37:50;98840.66;;;13.88;59.06
57847;BME280;43675;50.030;21.952;2023-04-30T12:40:18;98839.98;;;14.02;58.90
57847;BME280;43675;50.030;21.952;2023-04-30T12:42:45;98840.97;;;14.03;58.48
57847;BME280;43675;50.030;21.952;2023-04-30T12:45:13;98839.73;;;13.94;58.62
57847;BME280;43675;50.030;21.952;2023-04-30T12:47:59;98842.67;;;13.87;58.76
57847;BME280;43675;50.030;21.952;2023-04-30T12:50:25;98840.36;;;13.81;58.80
57847;BME280;43675;50.030;21.952;2023-04-30T12:52:52;98835.17;;;13.76;58.99
57847;BME280;43675;50.030;21.952;2023-04-30T12:55:20;98836.80;;;13.70;59.24
57847;BME280;43675;50.030;21.952;2023-04-30T12:58:03;98840.61;;;13.63;59.52
57847;BME280;43675;50.030;21.952;2023-04-30T13:00:43;98844.55;;;13.59;59.66
57847;BME280;43675;50.030;21.952;2023-04-30T13:03:11;98844.63;;;13.54;59.86
57847;BME280;43675;50.030;21.952;2023-04-30T13:05:39;98840.80;;;13.51;60.26
57847;BME280;43675;50.030;21.952;2023-04-30T13:08:06;98844.02;;;13.50;60.47
57847;BME280;43675;50.030;21.952;2023-04-30T13:10:32;98843.83;;;13.46;60.70
57847;BME280;43675;50.030;21.952;2023-04-30T13:12:59;98842.23;;;13.41;60.94
57847;BME280;43675;50.030;21.952;2023-04-30T13:15:25;98842.70;;;13.39;61.26
57847;BME280;43675;50.030;21.952;2023-04-30T13:17:52;98841.10;;;13.39;61.48
57847;BME280;43675;50.030;21.952;2023-04-30T13:20:18;98845.86;;;13.45;61.44
57847;BME280;43675;50.030;21.952;2023-04-30T13:22:45;98842.08;;;13.43;61.61
57847;BME280;43675;50.030;21.952;2023-04-30T13:25:11;98841.00;;;13.46;61.79
57847;BME280;43675;50.030;21.952;2023-04-30T13:27:38;98841.27;;;13.53;61.78
57847;BME280;43675;50.030;21.952;2023-04-30T13:30:05;98836.39;;;13.61;61.67
57847;BME280;43675;50.030;21.952;2023-04-30T13:32:32;98829.61;;;13.73;61.57
57847;BME280;43675;50.030;21.952;2023-04-30T13:34:58;98831.85;;;13.92;61.35
57847;BME280;43675;50.030;21.952;2023-04-30T13:37:25;98829.41;;;14.20;60.89